createdAt,value
2019-04-29T00:01:07.425Z,14.40
2019-04-29T00:03:36.202Z,16.90
2019-04-29T00:06:05.300Z,17.90
2019-04-29T00:08:34.040Z,16.47
2019-04-29T00:11:02.901Z,14.93
2019-04-29T00:13:31.629Z,14.60
2019-04-29T00:16:11.128Z,14.57
2019-04-29T00:18:41.720Z,18.60
2019-04-29T00:21:10.513Z,17.33
2019-04-29T00:23:39.360Z,30.70
2019-04-29T00:26:08.100Z,19.13
2019-04-29T00:28:36.859Z,15.40
2019-04-29T00:31:05.827Z,16.60
2019-04-29T00:33:34.539Z,12.13
2019-04-29T00:36:03.306Z,9.77
2019-04-29T00:38:42.594Z,11.90
2019-04-29T00:41:29.471Z,18.93
2019-04-29T00:44:02.856Z,13.57
2019-04-29T00:46:32.801Z,15.17
2019-04-29T00:49:01.541Z,14.93
2019-04-29T00:51:30.403Z,13.20
2019-04-29T00:54:00.766Z,18.97
2019-04-29T00:56:29.507Z,13.03
2019-04-29T00:58:58.257Z,18.93
2019-04-29T01:01:27.177Z,20.93
2019-04-29T01:03:55.881Z,11.50
2019-04-29T01:06:24.645Z,16.47
2019-04-29T01:08:53.374Z,15.87
2019-04-29T01:11:22.468Z,15.80
2019-04-29T01:13:51.231Z,10.27
2019-04-29T01:16:20.022Z,22.33
2019-04-29T01:18:48.753Z,16.20
2019-04-29T01:21:17.550Z,25.37
2019-04-29T01:23:46.375Z,16.87
2019-04-29T01:26:32.120Z,12.10
2019-04-29T01:29:02.498Z,16.57
2019-04-29T01:31:32.309Z,15.57
2019-04-29T01:34:02.708Z,9.93
2019-04-29T01:36:33.069Z,13.17
2019-04-29T01:39:02.595Z,20.97
2019-04-29T01:41:35.710Z,18.13
2019-04-29T01:44:06.329Z,12.27
2019-04-29T01:46:35.147Z,13.60
2019-04-29T01:49:03.901Z,14.63
2019-04-29T01:51:32.644Z,17.13
2019-04-29T01:54:01.403Z,12.63
2019-04-29T01:56:30.226Z,13.40
2019-04-29T01:58:59.039Z,9.20
2019-04-29T02:01:27.872Z,14.97
2019-04-29T02:03:56.640Z,12.93
2019-04-29T02:06:25.442Z,10.53
2019-04-29T02:08:55.354Z,10.50
2019-04-29T02:11:24.130Z,15.63
2019-04-29T02:13:52.969Z,13.33
2019-04-29T02:16:21.880Z,9.80
2019-04-29T02:18:50.701Z,14.80
2019-04-29T02:21:19.530Z,12.50
2019-04-29T02:24:08.201Z,21.70
2019-04-29T02:26:37.012Z,13.73
2019-04-29T02:29:05.738Z,23.23
2019-04-29T02:31:42.165Z,12.03
2019-04-29T02:34:10.904Z,14.17
2019-04-29T02:36:39.651Z,18.20
2019-04-29T02:39:30.572Z,18.70
2019-04-29T02:42:17.694Z,6.83
2019-04-29T02:44:47.126Z,20.37
2019-04-29T02:47:15.920Z,13.73
2019-04-29T02:49:44.735Z,14.77
2019-04-29T02:52:13.427Z,15.47
2019-04-29T02:54:42.524Z,13.80
2019-04-29T02:57:12.954Z,14.10
2019-04-29T02:59:49.119Z,15.13
2019-04-29T03:02:36.067Z,9.63
2019-04-29T03:05:16.165Z,11.50
2019-04-29T03:07:45.155Z,15.40
2019-04-29T03:10:14.191Z,13.87
2019-04-29T03:12:43.213Z,15.80
2019-04-29T03:15:12.664Z,13.07
2019-04-29T03:17:41.704Z,12.57
2019-04-29T03:20:12.081Z,15.67
2019-04-29T03:22:42.469Z,10.93
2019-04-29T03:25:11.405Z,9.77
2019-04-29T03:27:40.176Z,12.23
2019-04-29T03:30:09.191Z,15.10
2019-04-29T03:32:37.958Z,13.57
2019-04-29T03:35:07.507Z,10.67
2019-04-29T03:37:36.218Z,11.90
2019-04-29T03:40:06.409Z,14.43
2019-04-29T03:42:35.119Z,12.97
2019-04-29T03:45:05.324Z,9.63
2019-04-29T03:47:34.149Z,13.97
2019-04-29T03:50:02.863Z,15.33
2019-04-29T03:52:31.597Z,14.37
2019-04-29T03:55:00.477Z,15.97
2019-04-29T03:57:30.839Z,15.27
2019-04-29T03:59:59.592Z,16.93
2019-04-29T04:02:30.055Z,11.10
2019-04-29T04:05:06.571Z,10.67
2019-04-29T04:07:46.057Z,11.97
2019-04-29T04:10:15.192Z,21.57
2019-04-29T04:12:43.924Z,9.37
2019-04-29T04:15:12.817Z,18.13
2019-04-29T04:17:52.491Z,17.80
2019-04-29T04:20:21.693Z,18.63
2019-04-29T04:22:50.471Z,15.23
2019-04-29T04:25:19.289Z,10.73
2019-04-29T04:27:48.537Z,17.93
2019-04-29T04:30:18.190Z,11.90
2019-04-29T04:32:46.892Z,22.13
2019-04-29T04:35:15.630Z,15.30
2019-04-29T04:37:44.409Z,14.57
2019-04-29T04:40:19.369Z,14.50
2019-04-29T04:42:48.118Z,15.30
2019-04-29T04:45:17.008Z,18.07
2019-04-29T04:47:45.768Z,11.67
2019-04-29T04:50:15.945Z,15.53
2019-04-29T04:52:44.666Z,9.43
2019-04-29T04:55:13.788Z,14.00
2019-04-29T04:57:42.533Z,15.00
2019-04-29T05:00:22.900Z,17.70
2019-04-29T05:02:51.670Z,17.73
2019-04-29T05:05:20.405Z,14.10
2019-04-29T05:07:49.121Z,12.33
2019-04-29T05:10:17.877Z,14.37
2019-04-29T05:12:46.628Z,18.67
2019-04-29T05:15:16.041Z,11.27
2019-04-29T05:17:44.878Z,10.87
2019-04-29T05:20:13.897Z,14.53
2019-04-29T05:22:44.255Z,14.73
2019-04-29T05:25:13.087Z,13.73
2019-04-29T05:27:41.809Z,9.63
2019-04-29T05:30:10.534Z,14.70
2019-04-29T05:32:39.306Z,16.37
2019-04-29T05:35:20.751Z,15.00
2019-04-29T05:37:59.839Z,17.33
2019-04-29T05:40:45.249Z,19.00
2019-04-29T05:43:15.656Z,14.03
2019-04-29T05:46:02.750Z,12.53
2019-04-29T05:48:32.067Z,17.17
2019-04-29T05:51:06.275Z,24.10
2019-04-29T05:53:54.699Z,15.07
2019-04-29T05:56:19.011Z,15.17
2019-04-29T05:58:47.744Z,17.60
2019-04-29T06:01:18.138Z,16.63
2019-04-29T06:03:47.040Z,17.13
2019-04-29T06:06:15.772Z,17.73
2019-04-29T06:08:44.522Z,9.10
2019-04-29T06:11:13.278Z,10.03
2019-04-29T06:13:41.993Z,19.43
2019-04-29T06:16:10.754Z,15.43
2019-04-29T06:18:41.078Z,13.40
2019-04-29T06:21:09.996Z,12.20
2019-04-29T06:23:38.760Z,11.53
2019-04-29T06:26:07.499Z,10.23
2019-04-29T06:28:36.249Z,13.30
2019-04-29T06:31:05.064Z,15.77
2019-04-29T06:33:33.792Z,12.93
2019-04-29T06:36:02.600Z,15.83
2019-04-29T06:38:31.336Z,12.70
2019-04-29T06:41:00.108Z,17.53
2019-04-29T06:43:30.636Z,17.83
2019-04-29T06:45:59.362Z,11.57
2019-04-29T06:48:28.085Z,10.50
2019-04-29T06:50:56.871Z,9.50
2019-04-29T06:53:25.589Z,14.07
2019-04-29T06:55:54.331Z,14.80
2019-04-29T06:58:23.077Z,11.90
2019-04-29T07:00:55.868Z,15.90
2019-04-29T07:03:25.441Z,12.83
2019-04-29T07:05:52.652Z,16.63
2019-04-29T07:08:21.400Z,15.07
2019-04-29T07:10:50.120Z,17.80
2019-04-29T07:13:22.919Z,20.17
2019-04-29T07:15:49.424Z,12.77
2019-04-29T07:18:18.220Z,15.23
2019-04-29T07:20:46.996Z,13.73
2019-04-29T07:23:15.787Z,17.43
2019-04-29T07:25:44.522Z,12.50
2019-04-29T07:28:13.820Z,10.60
2019-04-29T07:31:00.384Z,11.37
2019-04-29T07:33:22.045Z,21.83
2019-04-29T07:35:47.896Z,8.53
2019-04-29T07:38:14.850Z,14.87
2019-04-29T07:40:44.652Z,12.20
2019-04-29T07:43:13.555Z,15.70
2019-04-29T07:46:03.739Z,13.27
2019-04-29T07:48:30.859Z,13.83
2019-04-29T07:51:04.208Z,11.70
2019-04-29T07:53:37.396Z,18.40
2019-04-29T07:56:01.734Z,8.97
2019-04-29T07:58:31.346Z,11.50
2019-04-29T08:01:00.093Z,12.53
2019-04-29T08:03:29.051Z,12.50
2019-04-29T08:05:58.778Z,12.17
2019-04-29T08:08:29.924Z,15.43
2019-04-29T08:10:58.832Z,17.03
2019-04-29T08:13:28.396Z,10.53
2019-04-29T08:15:57.141Z,7.90
2019-04-29T08:18:25.940Z,10.70
2019-04-29T08:20:54.700Z,11.87
2019-04-29T08:23:23.453Z,11.73
2019-04-29T08:25:52.188Z,13.23
2019-04-29T08:28:20.971Z,15.30
2019-04-29T08:30:49.692Z,8.30
2019-04-29T08:33:18.409Z,9.10
2019-04-29T08:35:47.259Z,9.00
2019-04-29T08:38:15.990Z,7.97
2019-04-29T08:40:45.367Z,8.20
2019-04-29T08:43:28.954Z,12.33
2019-04-29T08:46:07.844Z,8.10
2019-04-29T08:48:36.670Z,12.43
2019-04-29T08:51:05.560Z,13.93
2019-04-29T08:53:34.310Z,16.77
2019-04-29T08:56:05.682Z,12.93
2019-04-29T08:58:33.556Z,6.93
2019-04-29T09:01:02.371Z,12.87
2019-04-29T09:03:40.149Z,6.83
2019-04-29T09:06:05.523Z,6.60
2019-04-29T09:08:32.925Z,9.57
2019-04-29T09:11:02.391Z,14.13
2019-04-29T09:13:31.225Z,4.23
2019-04-29T09:16:00.098Z,7.33
2019-04-29T09:18:28.885Z,8.03
2019-04-29T09:20:57.727Z,6.63
2019-04-29T09:23:30.994Z,9.87
2019-04-29T09:26:10.745Z,4.13
2019-04-29T09:28:39.481Z,17.30
2019-04-29T09:31:10.094Z,6.47
2019-04-29T09:33:38.862Z,8.23
2019-04-29T09:36:09.592Z,11.23
2019-04-29T09:38:38.465Z,10.83
2019-04-29T09:41:08.994Z,8.23
2019-04-29T09:43:42.139Z,8.03
2019-04-29T09:46:18.726Z,9.87
2019-04-29T09:48:47.683Z,8.83
2019-04-29T09:51:18.127Z,7.63
2019-04-29T09:53:46.970Z,9.77
2019-04-29T09:56:15.799Z,8.63
2019-04-29T09:58:44.572Z,9.67
2019-04-29T10:01:18.622Z,5.87
2019-04-29T10:04:03.566Z,15.20
2019-04-29T10:06:34.030Z,4.70
2019-04-29T10:09:02.868Z,11.17
2019-04-29T10:11:31.589Z,7.47
2019-04-29T10:14:00.366Z,7.97
2019-04-29T10:16:45.767Z,9.13
2019-04-29T10:19:21.950Z,4.87
2019-04-29T10:21:52.246Z,10.10
2019-04-29T10:24:21.090Z,6.73
2019-04-29T10:26:49.851Z,5.97
2019-04-29T10:29:20.372Z,17.60
2019-04-29T10:31:49.326Z,9.30
2019-04-29T10:34:18.603Z,8.17
2019-04-29T10:36:47.296Z,7.63
2019-04-29T10:39:22.695Z,12.23
2019-04-29T10:41:51.454Z,11.53
2019-04-29T10:44:40.163Z,5.20
2019-04-29T10:47:25.244Z,6.70
2019-04-29T10:49:58.356Z,9.40
2019-04-29T10:52:27.174Z,9.10
2019-04-29T10:54:56.695Z,7.73
2019-04-29T10:57:29.286Z,7.57
2019-04-29T11:00:01.001Z,10.67
2019-04-29T11:02:37.117Z,5.63
2019-04-29T11:05:29.338Z,9.97
2019-04-29T11:08:02.540Z,15.87
2019-04-29T11:10:33.232Z,8.60
2019-04-29T11:13:02.036Z,9.83
2019-04-29T11:15:32.910Z,7.67
2019-04-29T11:18:03.584Z,10.40
2019-04-29T11:20:32.894Z,5.60
2019-04-29T11:23:03.322Z,8.37
2019-04-29T11:25:42.842Z,9.27
2019-04-29T11:28:11.976Z,8.77
2019-04-29T11:30:42.124Z,6.77
2019-04-29T11:33:18.061Z,9.00
2019-04-29T11:35:53.966Z,9.60
2019-04-29T11:38:23.013Z,8.00
2019-04-29T11:40:52.371Z,10.90
2019-04-29T11:43:21.798Z,7.87
2019-04-29T11:45:50.910Z,8.93
2019-04-29T11:48:19.648Z,5.10
2019-04-29T11:50:58.894Z,9.27
2019-04-29T11:53:27.717Z,8.00
2019-04-29T11:55:57.386Z,5.63
2019-04-29T11:58:28.579Z,10.77
2019-04-29T12:00:59.160Z,5.53
2019-04-29T12:03:45.944Z,7.67
2019-04-29T12:06:16.249Z,10.23
2019-04-29T12:08:48.179Z,4.57
2019-04-29T12:11:17.641Z,7.03
2019-04-29T12:13:51.148Z,9.23
2019-04-29T12:16:27.444Z,6.90
2019-04-29T12:19:06.897Z,10.07
2019-04-29T12:21:37.272Z,9.37
2019-04-29T12:24:07.384Z,17.30
2019-04-29T12:26:42.920Z,9.27
2019-04-29T12:29:06.626Z,7.17
2019-04-29T12:31:52.112Z,9.53
2019-04-29T12:34:22.618Z,10.60
2019-04-29T12:36:55.931Z,7.13
2019-04-29T12:39:44.723Z,6.43
2019-04-29T12:42:17.842Z,6.30
2019-04-29T12:44:51.292Z,11.13
2019-04-29T12:47:27.319Z,9.70
2019-04-29T12:49:56.197Z,11.67
2019-04-29T12:52:25.613Z,8.87
2019-04-29T12:54:54.348Z,6.13
2019-04-29T12:57:23.568Z,9.67
2019-04-29T12:59:54.660Z,9.20
2019-04-29T13:02:28.417Z,8.30
2019-04-29T13:04:59.011Z,9.87
2019-04-29T13:07:29.488Z,7.07
2019-04-29T13:10:07.014Z,6.47
2019-04-29T13:12:33.650Z,11.07
2019-04-29T13:15:07.921Z,7.03
2019-04-29T13:17:41.872Z,6.20
2019-04-29T13:20:13.144Z,7.63
2019-04-29T13:22:41.943Z,4.57
2019-04-29T13:25:10.998Z,7.53
2019-04-29T13:27:41.216Z,11.90
2019-04-29T13:30:16.101Z,7.70
2019-04-29T13:32:42.663Z,7.20
2019-04-29T13:35:12.741Z,6.97
2019-04-29T13:37:41.721Z,12.57
2019-04-29T13:40:12.201Z,6.87
2019-04-29T13:42:48.614Z,8.43
2019-04-29T13:45:42.798Z,2.53
2019-04-29T13:47:50.335Z,6.23
2019-04-29T13:50:38.690Z,5.70
2019-04-29T13:52:56.580Z,7.10
2019-04-29T13:55:47.367Z,5.90
2019-04-29T13:57:55.776Z,4.63
2019-04-29T14:00:26.404Z,3.93
2019-04-29T14:03:02.584Z,6.37
2019-04-29T14:05:32.507Z,11.63
2019-04-29T14:08:03.951Z,5.20
2019-04-29T14:10:32.902Z,8.33
2019-04-29T14:13:10.478Z,7.03
2019-04-29T14:15:33.873Z,5.17
2019-04-29T14:18:02.619Z,7.50
2019-04-29T14:20:31.369Z,8.63
2019-04-29T14:23:00.094Z,4.80
2019-04-29T14:25:28.834Z,8.40
2019-04-29T14:27:57.614Z,5.83
2019-04-29T14:30:37.948Z,6.40
2019-04-29T14:33:01.717Z,12.33
2019-04-29T14:35:43.725Z,7.93
2019-04-29T14:38:13.340Z,4.67
2019-04-29T14:40:42.828Z,6.30
2019-04-29T14:43:32.138Z,5.33
2019-04-29T14:46:19.402Z,9.17
2019-04-29T14:48:49.811Z,4.03
2019-04-29T14:51:18.562Z,5.70
2019-04-29T14:53:56.247Z,6.40
2019-04-29T14:56:17.702Z,5.57
2019-04-29T14:58:46.521Z,11.03
2019-04-29T15:01:23.334Z,6.03
2019-04-29T15:03:58.105Z,5.23
2019-04-29T15:06:28.924Z,8.40
2019-04-29T15:08:57.299Z,8.33
2019-04-29T15:11:31.876Z,4.80
2019-04-29T15:14:22.940Z,8.60
2019-04-29T15:16:48.564Z,4.80
2019-04-29T15:19:35.452Z,9.23
2019-04-29T15:22:05.862Z,5.30
2019-04-29T15:24:34.711Z,4.30
2019-04-29T15:27:03.462Z,5.93
2019-04-29T15:29:33.557Z,4.57
2019-04-29T15:32:03.218Z,5.53
2019-04-29T15:34:31.974Z,5.00
2019-04-29T15:37:00.754Z,4.80
2019-04-29T15:39:29.632Z,9.40
2019-04-29T15:42:01.966Z,8.23
2019-04-29T15:44:29.037Z,5.37
2019-04-29T15:46:57.736Z,8.10
2019-04-29T15:49:26.955Z,6.33
2019-04-29T15:51:55.708Z,3.90
2019-04-29T15:54:26.170Z,4.67
2019-04-29T15:56:54.927Z,4.53
2019-04-29T15:59:23.797Z,4.87
2019-04-29T16:01:52.637Z,9.23
2019-04-29T16:04:32.445Z,5.83
2019-04-29T16:07:17.108Z,3.50
2019-04-29T16:09:58.550Z,4.23
2019-04-29T16:12:31.890Z,5.03
2019-04-29T16:15:00.707Z,9.03
2019-04-29T16:17:31.934Z,4.10
2019-04-29T16:19:59.944Z,10.80
2019-04-29T16:22:28.681Z,3.57
2019-04-29T16:24:59.384Z,5.37
2019-04-29T16:27:27.899Z,3.97
2019-04-29T16:29:56.729Z,4.07
2019-04-29T16:32:30.111Z,6.07
2019-04-29T16:34:59.009Z,4.90
2019-04-29T16:37:31.920Z,9.17
2019-04-29T16:39:59.764Z,4.47
2019-04-29T16:42:30.393Z,2.70
2019-04-29T16:44:59.153Z,2.13
2019-04-29T16:47:28.054Z,4.03
2019-04-29T16:49:57.610Z,6.43
2019-04-29T16:52:27.326Z,3.57
2019-04-29T16:54:59.111Z,4.80
2019-04-29T16:57:26.564Z,5.07
2019-04-29T16:59:55.333Z,6.43
2019-04-29T17:02:24.735Z,6.47
2019-04-29T17:04:53.545Z,6.03
2019-04-29T17:07:22.389Z,4.80
2019-04-29T17:09:52.768Z,9.07
2019-04-29T17:12:21.532Z,5.93
2019-04-29T17:15:04.113Z,6.67
2019-04-29T17:19:52.798Z,5.53
2019-04-29T17:22:27.177Z,6.30
2019-04-29T17:24:52.291Z,4.33
2019-04-29T17:27:42.181Z,7.03
2019-04-29T17:30:20.599Z,7.93
2019-04-29T17:32:57.439Z,4.67
2019-04-29T17:35:16.118Z,7.13
2019-04-29T17:35:28.472Z,4.37
2019-04-29T17:37:57.216Z,7.40
2019-04-29T17:40:26.572Z,3.57
2019-04-29T17:43:00.851Z,5.53
2019-04-29T17:45:31.048Z,3.63
2019-04-29T17:48:01.145Z,4.00
2019-04-29T17:50:31.631Z,5.63
2019-04-29T17:53:00.583Z,5.10
2019-04-29T17:55:45.946Z,6.63
2019-04-29T17:58:19.429Z,4.37
2019-04-29T18:01:05.330Z,4.17
2019-04-29T18:03:48.041Z,7.47
2019-04-29T18:06:24.456Z,4.47
2019-04-29T18:09:06.836Z,4.63
2019-04-29T18:11:49.663Z,5.17
2019-04-29T18:14:06.668Z,5.07
2019-04-29T18:16:39.506Z,2.27
2019-04-29T18:19:17.327Z,3.37
2019-04-29T18:22:03.593Z,3.87
2019-04-29T18:24:37.366Z,3.60
2019-04-29T18:27:11.580Z,9.97
2019-04-29T18:29:41.803Z,9.57
2019-04-29T18:32:10.861Z,8.23
2019-04-29T18:34:39.616Z,9.73
2019-04-29T18:37:08.405Z,7.90
2019-04-29T18:39:37.121Z,3.93
2019-04-29T18:42:06.909Z,8.13
2019-04-29T18:44:35.902Z,8.93
2019-04-29T18:47:05.648Z,5.00
2019-04-29T18:49:34.552Z,9.67
2019-04-29T18:52:05.627Z,5.07
2019-04-29T18:54:35.612Z,7.53
2019-04-29T18:57:05.837Z,2.37
2019-04-29T18:59:36.658Z,3.17
2019-04-29T19:02:09.159Z,8.83
2019-04-29T19:04:40.458Z,4.47
2019-04-29T19:07:09.219Z,5.40
2019-04-29T19:09:39.540Z,10.13
2019-04-29T19:12:08.325Z,11.60
2019-04-29T19:14:37.118Z,9.83
2019-04-29T19:17:05.949Z,6.07
2019-04-29T19:19:35.873Z,9.73
2019-04-29T19:22:09.191Z,4.47
2019-04-29T19:24:36.280Z,7.63
2019-04-29T19:27:09.636Z,2.47
2019-04-29T19:29:38.856Z,3.03
2019-04-29T19:32:07.227Z,5.17
2019-04-29T19:34:42.504Z,9.97
2019-04-29T19:37:06.385Z,4.40
2019-04-29T19:39:35.164Z,7.73
2019-04-29T19:42:05.649Z,4.13
2019-04-29T19:44:36.700Z,5.53
2019-04-29T19:47:04.940Z,8.33
2019-04-29T19:49:35.785Z,3.13
2019-04-29T19:52:04.252Z,5.90
2019-04-29T19:54:32.973Z,4.63
2019-04-29T19:57:06.145Z,5.87
2019-04-29T19:59:32.556Z,6.20
2019-04-29T20:02:05.488Z,6.60
2019-04-29T20:04:37.391Z,5.60
2019-04-29T20:07:10.047Z,7.63
2019-04-29T20:09:38.148Z,6.03
2019-04-29T20:12:12.857Z,6.13
2019-04-29T20:14:38.007Z,6.63
2019-04-29T20:17:20.964Z,5.60
2019-04-29T20:20:06.871Z,4.57
2019-04-29T20:22:37.454Z,6.13
2019-04-29T20:25:07.504Z,6.43
2019-04-29T20:27:37.730Z,4.80
2019-04-29T20:30:15.970Z,5.23
2019-04-29T20:32:38.179Z,6.00
2019-04-29T20:35:09.042Z,6.97
2019-04-29T20:37:38.057Z,3.43
2019-04-29T20:40:07.671Z,5.17
2019-04-29T20:42:40.337Z,6.03
2019-04-29T20:45:09.395Z,3.77
2019-04-29T20:47:41.888Z,4.17
2019-04-29T20:50:13.921Z,4.60
2019-04-29T20:52:52.164Z,4.50
2019-04-29T20:55:21.309Z,6.60
2019-04-29T20:57:52.297Z,9.07
2019-04-29T21:00:24.766Z,8.63
2019-04-29T21:02:51.447Z,6.00
2019-04-29T21:05:24.414Z,3.40
2019-04-29T21:08:02.369Z,2.57
2019-04-29T21:10:24.376Z,2.60
2019-04-29T21:13:00.212Z,4.43
2019-04-29T21:15:59.526Z,7.27
2019-04-29T21:18:28.478Z,4.37
2019-04-29T21:20:59.564Z,3.03
2019-04-29T21:23:31.563Z,3.53
2019-04-29T21:26:00.585Z,5.40
2019-04-29T21:28:31.574Z,4.33
2019-04-29T21:31:00.859Z,4.40
2019-04-29T21:33:31.145Z,4.93
2019-04-29T21:36:10.682Z,4.63
2019-04-29T21:38:48.433Z,3.53
2019-04-29T21:41:21.919Z,3.03
2019-04-29T21:43:53.476Z,6.23
2019-04-29T21:46:29.121Z,5.10
2019-04-29T21:48:55.702Z,4.63
2019-04-29T21:51:26.395Z,5.53
2019-04-29T21:53:56.018Z,3.13
2019-04-29T21:56:25.824Z,4.80
2019-04-29T21:58:54.610Z,5.50
2019-04-29T22:01:25.050Z,8.20
2019-04-29T22:03:57.709Z,6.37
2019-04-29T22:06:24.735Z,2.43
2019-04-29T22:09:01.142Z,5.17
2019-04-29T22:11:25.716Z,3.50
2019-04-29T22:13:55.527Z,5.57
2019-04-29T22:16:25.121Z,4.70
2019-04-29T22:18:55.367Z,3.50
2019-04-29T22:21:25.914Z,4.90
2019-04-29T22:23:55.279Z,11.10
2019-04-29T22:26:26.804Z,3.50
2019-04-29T22:29:01.798Z,6.37
2019-04-29T22:31:26.859Z,5.10
2019-04-29T22:33:57.384Z,6.47
2019-04-29T22:36:25.957Z,3.73
2019-04-29T22:38:55.813Z,5.60
2019-04-29T22:41:35.230Z,3.80
2019-04-29T22:44:05.595Z,6.23
2019-04-29T22:46:35.678Z,9.33
2019-04-29T22:49:05.845Z,11.87
2019-04-29T22:51:35.550Z,3.40
2019-04-29T22:54:04.750Z,4.43
2019-04-29T22:56:33.535Z,4.73
2019-04-29T22:59:02.282Z,8.97
2019-04-29T23:01:31.087Z,4.50
2019-04-29T23:03:59.934Z,7.33
2019-04-29T23:06:28.699Z,5.53
2019-04-29T23:08:57.430Z,4.67
2019-04-29T23:11:26.341Z,7.50
2019-04-29T23:13:55.438Z,5.83
2019-04-29T23:16:24.297Z,4.30
2019-04-29T23:18:55.137Z,5.17
2019-04-29T23:21:42.865Z,5.37
2019-04-29T23:24:26.738Z,6.87
2019-04-29T23:26:55.488Z,4.73
2019-04-29T23:29:25.477Z,5.97
2019-04-29T23:31:55.370Z,4.30
2019-04-29T23:34:25.835Z,4.73
2019-04-29T23:36:54.746Z,5.77
2019-04-29T23:39:24.886Z,5.30
2019-04-29T23:41:55.350Z,3.57
2019-04-29T23:44:24.380Z,6.50
2019-04-29T23:46:53.135Z,7.50
2019-04-29T23:49:21.863Z,7.73
2019-04-29T23:51:50.596Z,5.33
2019-04-29T23:54:19.378Z,5.60
2019-04-29T23:57:02.015Z,4.77
2019-04-29T23:59:48.857Z,7.67
